Time;durP1;ratioP1;P1;durP2;ratioP2;P2;SDS_P1;SDS_P2;PMS_P1;PMS_P2;Temp;Humidity;BMP_temperature;BMP_pressure;BME280_temperature;BME280_humidity;BME280_pressure;Samples;Min_cycle;Max_cycle;Signal;HPM_P1;HPM_P2
2023/08/12 00:01:36;;;;;;;4.93;3.10;;;24.00;99.90;;;;;;4127615;28;20034;-65
2023/08/12 00:03:37;;;;;;;3.42;2.70;;;23.90;99.90;;;;;;4130567;28;20037;-66
2023/08/12 00:05:39;;;;;;;4.95;2.90;;;23.90;99.90;;;;;;4129166;28;20065;-73
2023/08/12 00:07:41;;;;;;;4.80;3.30;;;23.90;99.90;;;;;;4096287;28;20043;-73
2023/08/12 00:09:41;;;;;;;3.58;2.97;;;23.90;99.90;;;;;;4128922;28;20057;-73
2023/08/12 00:11:42;;;;;;;7.88;3.47;;;23.90;99.90;;;;;;4127308;28;20027;-73
2023/08/12 00:13:43;;;;;;;4.95;3.15;;;23.90;99.90;;;;;;4125022;28;20058;-73
2023/08/12 00:15:44;;;;;;;6.53;3.13;;;23.90;99.90;;;;;;4125040;28;20510;-70
2023/08/12 00:17:45;;;;;;;3.47;2.80;;;23.90;99.90;;;;;;4126987;28;20034;-73
2023/08/12 00:19:45;;;;;;;5.18;3.25;;;23.80;99.90;;;;;;4125558;28;20133;-73
2023/08/12 00:21:46;;;;;;;5.22;3.33;;;23.80;99.90;;;;;;4125472;28;20065;-73
2023/08/12 00:23:49;;;;;;;4.55;2.97;;;23.80;99.90;;;;;;4126268;28;20088;-73
2023/08/12 00:25:50;;;;;;;4.55;3.20;;;23.80;99.90;;;;;;4124788;28;20042;-73
2023/08/12 00:27:52;;;;;;;4.30;3.25;;;23.80;99.90;;;;;;4118707;28;20050;-74
2023/08/12 00:29:52;;;;;;;5.95;3.63;;;23.80;99.90;;;;;;4135729;28;20041;-74
2023/08/12 00:31:54;;;;;;;4.10;2.67;;;23.80;99.90;;;;;;4126860;28;20034;-73
2023/08/12 00:33:54;;;;;;;4.47;3.55;;;23.80;99.90;;;;;;4126799;28;20487;-74
2023/08/12 00:35:55;;;;;;;6.57;4.00;;;23.70;99.90;;;;;;4126249;28;20037;-73
2023/08/12 00:37:56;;;;;;;5.43;3.60;;;23.80;99.90;;;;;;4132480;28;20031;-73
2023/08/12 00:39:56;;;;;;;4.85;3.40;;;23.70;99.90;;;;;;4127222;28;20027;-74
2023/08/12 00:41:57;;;;;;;4.90;3.25;;;23.80;99.90;;;;;;4125186;28;20030;-74
2023/08/12 00:43:58;;;;;;;4.93;3.33;;;23.70;99.90;;;;;;4124686;28;20097;-72
2023/08/12 00:45:58;;;;;;;4.22;3.38;;;23.70;99.90;;;;;;4123570;28;20043;-73
2023/08/12 00:47:59;;;;;;;4.95;3.15;;;23.70;99.90;;;;;;4128808;28;21596;-73
2023/08/12 00:50:00;;;;;;;6.28;3.58;;;23.60;99.90;;;;;;4127855;28;20038;-74
2023/08/12 00:52:01;;;;;;;4.57;3.33;;;23.70;99.90;;;;;;4125216;28;20487;-74
2023/08/12 00:54:06;;;;;;;4.63;3.47;;;23.70;99.90;;;;;;4126856;28;20106;-74
2023/08/12 00:56:07;;;;;;;3.42;2.63;;;23.60;99.90;;;;;;4128561;28;20041;-74
2023/08/12 00:58:09;;;;;;;4.35;3.38;;;23.70;99.90;;;;;;4128075;28;20034;-73
2023/08/12 01:00:10;;;;;;;7.05;3.92;;;23.60;99.90;;;;;;4123920;28;20039;-73
2023/08/12 01:02:12;;;;;;;4.97;2.92;;;23.60;99.90;;;;;;4128957;28;20443;-74
2023/08/12 01:04:13;;;;;;;5.00;3.58;;;23.60;99.90;;;;;;4132237;28;20503;-73
2023/08/12 01:06:14;;;;;;;5.63;3.53;;;23.60;99.90;;;;;;4124302;28;20030;-74
2023/08/12 01:08:14;;;;;;;3.47;2.85;;;23.60;99.90;;;;;;4124419;28;20095;-74
2023/08/12 01:10:16;;;;;;;5.75;3.58;;;23.60;99.90;;;;;;4122961;28;20089;-71
2023/08/12 01:12:26;;;;;;;5.07;3.47;;;23.60;99.90;;;;;;4125464;28;20031;-74
2023/08/12 01:14:39;;;;;;;3.13;2.80;;;23.60;99.90;;;;;;4126942;28;20062;-67
2023/08/12 01:16:41;;;;;;;;;;;23.60;99.90;;;;;;4123702;28;20042;-68
2023/08/12 01:18:43;;;;;;;5.97;3.23;;;23.60;99.90;;;;;;4129639;28;19987;-68
2023/08/12 01:20:45;;;;;;;4.65;3.05;;;23.60;99.90;;;;;;4125429;28;20496;-67
2023/08/12 01:22:46;;;;;;;6.82;4.13;;;23.60;99.90;;;;;;4125446;28;20080;-67
2023/08/12 01:24:47;;;;;;;5.67;4.03;;;23.60;99.90;;;;;;4124725;28;20042;-68
2023/08/12 01:26:47;;;;;;;4.45;3.47;;;23.60;99.90;;;;;;4128807;28;20038;-68
2023/08/12 01:28:48;;;;;;;6.35;3.85;;;23.50;99.90;;;;;;4117845;28;20649;-68
2023/08/12 01:30:54;;;;;;;5.70;3.90;;;23.50;99.90;;;;;;4125780;28;20050;-68
2023/08/12 01:33:08;;;;;;;4.55;3.47;;;23.50;99.90;;;;;;4125744;28;20093;-68
2023/08/12 01:35:23;;;;;;;6.82;4.10;;;23.50;99.90;;;;;;4123948;28;20027;-69
2023/08/12 01:37:27;;;;;;;8.25;4.65;;;23.50;99.90;;;;;;4124001;28;24542;-68
2023/08/12 01:39:30;;;;;;;6.32;4.25;;;23.50;99.90;;;;;;4125720;28;20054;-67
2023/08/12 01:41:31;;;;;;;9.80;4.43;;;23.50;99.90;;;;;;4123992;28;20034;-67
2023/08/12 01:43:33;;;;;;;6.93;4.43;;;23.40;99.90;;;;;;4125784;28;20034;-68
2023/08/12 01:45:34;;;;;;;6.68;4.00;;;23.40;99.90;;;;;;4124216;28;20065;-70
2023/08/12 01:47:34;;;;;;;6.07;3.97;;;23.40;99.90;;;;;;4122625;28;20034;-71
2023/08/12 01:49:35;;;;;;;6.07;3.55;;;23.40;99.90;;;;;;4132202;28;20030;-68
2023/08/12 01:51:35;;;;;;;6.03;4.25;;;23.40;99.90;;;;;;4125485;28;20046;-69
2023/08/12 01:53:36;;;;;;;9.13;5.10;;;23.40;99.90;;;;;;4137782;28;20042;-71
2023/08/12 01:55:37;;;;;;;7.70;4.95;;;23.30;99.90;;;;;;4131255;28;20061;-68
2023/08/12 01:57:37;;;;;;;7.40;4.70;;;23.30;99.90;;;;;;4132593;28;20030;-68
2023/08/12 01:59:38;;;;;;;7.75;4.70;;;23.20;99.90;;;;;;4123197;28;20041;-68
2023/08/12 02:01:39;;;;;;;7.28;5.40;;;23.20;99.90;;;;;;4137631;28;20558;-68
2023/08/12 02:03:39;;;;;;;6.88;4.78;;;23.10;99.90;;;;;;4126228;28;20031;-68
2023/08/12 02:05:41;;;;;;;7.95;4.25;;;23.10;99.90;;;;;;4139925;28;20466;-68
2023/08/12 02:07:41;;;;;;;7.32;4.80;;;23.10;99.90;;;;;;4124010;28;20118;-70
2023/08/12 02:09:42;;;;;;;7.68;5.05;;;23.00;99.90;;;;;;4124143;28;20391;-68
2023/08/12 02:11:43;;;;;;;8.40;4.78;;;23.00;99.90;;;;;;4122879;28;20357;-68
2023/08/12 02:13:43;;;;;;;5.65;4.63;;;23.00;99.90;;;;;;4125327;28;20506;-68
2023/08/12 02:15:44;;;;;;;6.47;4.82;;;23.00;99.90;;;;;;4139664;28;20487;-67
2023/08/12 02:17:44;;;;;;;8.90;5.45;;;23.00;99.90;;;;;;4115469;28;20511;-67
2023/08/12 02:19:45;;;;;;;6.95;5.25;;;22.90;99.90;;;;;;4139509;28;20419;-68
2023/08/12 02:21:46;;;;;;;8.30;5.72;;;22.90;99.90;;;;;;4128711;28;20034;-67
2023/08/12 02:23:46;;;;;;;7.03;4.88;;;22.90;99.90;;;;;;4128747;28;20498;-67
2023/08/12 02:25:47;;;;;;;6.35;4.35;;;22.90;99.90;;;;;;4135250;28;20387;-69
2023/08/12 02:27:48;;;;;;;7.75;4.97;;;22.90;99.90;;;;;;4127188;28;20125;-68
2023/08/12 02:29:48;;;;;;;11.45;6.53;;;22.90;99.90;;;;;;4127674;28;20133;-68
2023/08/12 02:31:49;;;;;;;5.90;4.72;;;22.90;99.90;;;;;;4131258;28;20062;-69
2023/08/12 02:33:49;;;;;;;7.38;5.07;;;22.90;99.90;;;;;;4117452;28;20035;-68
2023/08/12 02:35:53;;;;;;;8.98;6.28;;;22.90;99.90;;;;;;4128434;28;20046;-73
2023/08/12 02:37:54;;;;;;;9.77;6.00;;;22.90;99.90;;;;;;4143507;28;20029;-73
2023/08/12 02:39:55;;;;;;;10.40;5.28;;;22.80;99.90;;;;;;4126977;28;20132;-73
2023/08/12 02:41:55;;;;;;;8.10;5.78;;;22.90;99.90;;;;;;4130728;28;20454;-73
2023/08/12 02:43:56;;;;;;;8.25;5.82;;;22.80;99.90;;;;;;4127615;28;20507;-73
2023/08/12 02:45:56;;;;;;;7.93;5.30;;;22.80;99.90;;;;;;4124315;28;20042;-72
2023/08/12 02:47:57;;;;;;;7.90;5.18;;;22.80;99.90;;;;;;4127319;28;20487;-73
2023/08/12 02:49:58;;;;;;;10.32;6.28;;;22.80;99.90;;;;;;4130153;28;20414;-73
2023/08/12 02:51:58;;;;;;;7.57;5.75;;;22.90;99.90;;;;;;4130087;28;20487;-73
2023/08/12 02:53:59;;;;;;;9.27;6.00;;;22.90;99.90;;;;;;4126884;28;20360;-74
2023/08/12 02:56:00;;;;;;;10.57;6.45;;;22.90;99.90;;;;;;4125210;28;20145;-73
2023/08/12 02:58:01;;;;;;;7.65;4.55;;;22.90;99.90;;;;;;4127970;28;20034;-71
2023/08/12 03:00:04;;;;;;;9.45;6.35;;;22.90;99.90;;;;;;4129011;28;20050;-71
2023/08/12 03:02:04;;;;;;;6.85;4.95;;;22.90;99.90;;;;;;4128776;28;20388;-71
2023/08/12 03:04:05;;;;;;;8.50;6.28;;;22.90;99.90;;;;;;4127051;28;20118;-71
2023/08/12 03:06:06;;;;;;;8.80;6.10;;;22.90;99.90;;;;;;4124977;28;20113;-71
2023/08/12 03:08:07;;;;;;;10.70;7.45;;;22.90;99.90;;;;;;4127828;28;20415;-73
2023/08/12 03:10:08;;;;;;;8.43;6.75;;;22.90;99.90;;;;;;4123525;28;20065;-72
2023/08/12 03:12:08;;;;;;;8.02;5.95;;;22.90;99.90;;;;;;4127617;28;20487;-72
2023/08/12 03:14:09;;;;;;;10.27;7.28;;;22.90;99.90;;;;;;4127890;28;20188;-71
2023/08/12 03:16:14;;;;;;;9.77;6.82;;;22.90;99.90;;;;;;4125358;28;20463;-72
2023/08/12 03:18:14;;;;;;;10.77;6.80;;;22.90;99.90;;;;;;4127743;28;20034;-73
2023/08/12 03:20:15;;;;;;;10.93;7.72;;;22.90;99.90;;;;;;4126747;28;20023;-73
2023/08/12 03:22:18;;;;;;;10.50;7.60;;;22.90;99.90;;;;;;4125114;28;20446;-72
2023/08/12 03:24:19;;;;;;;11.43;8.40;;;22.90;99.90;;;;;;4125179;28;20377;-71
2023/08/12 03:26:20;;;;;;;9.13;6.93;;;22.90;99.90;;;;;;4126651;28;20041;-71
2023/08/12 03:28:20;;;;;;;11.48;7.63;;;22.90;99.90;;;;;;4127051;28;20070;-73
2023/08/12 03:30:21;;;;;;;15.68;10.45;;;22.90;99.90;;;;;;4125427;28;20104;-72
2023/08/12 03:32:21;;;;;;;11.57;7.97;;;22.80;99.90;;;;;;4124071;28;20499;-72
2023/08/12 03:34:22;;;;;;;10.82;8.23;;;22.80;99.90;;;;;;4126373;28;20076;-73
2023/08/12 03:36:23;;;;;;;10.45;7.70;;;22.80;99.90;;;;;;4140216;28;20040;-72
2023/08/12 03:38:23;;;;;;;9.35;7.22;;;22.80;99.90;;;;;;4126569;28;20109;-73
2023/08/12 03:40:24;;;;;;;11.82;7.53;;;22.80;99.90;;;;;;4125321;28;20136;-73
2023/08/12 03:42:24;;;;;;;12.13;7.97;;;22.80;99.90;;;;;;4127413;28;20113;-72
2023/08/12 03:44:26;;;;;;;8.90;6.95;;;22.80;99.90;;;;;;4130694;28;20772;-74
2023/08/12 03:46:26;;;;;;;9.57;6.55;;;22.80;99.90;;;;;;4125666;28;20038;-73
2023/08/12 03:48:27;;;;;;;10.80;7.93;;;22.80;99.90;;;;;;4137105;28;20041;-74
2023/08/12 03:50:27;;;;;;;10.38;7.80;;;22.80;99.90;;;;;;4125207;28;20050;-73
2023/08/12 03:52:28;;;;;;;10.40;7.40;;;22.80;99.90;;;;;;4122842;28;20093;-73
2023/08/12 03:54:28;;;;;;;11.07;7.88;;;22.70;99.90;;;;;;4121881;28;20114;-72
2023/08/12 03:56:29;;;;;;;10.43;7.55;;;22.70;99.90;;;;;;4127028;28;20467;-73
2023/08/12 03:58:30;;;;;;;12.25;8.38;;;22.70;99.90;;;;;;4126486;28;20046;-73
2023/08/12 04:00:31;;;;;;;8.93;7.20;;;22.60;99.90;;;;;;4124571;28;20054;-74
2023/08/12 04:02:31;;;;;;;9.32;7.25;;;22.70;99.90;;;;;;4131810;28;20039;-73
2023/08/12 04:04:33;;;;;;;10.05;7.05;;;22.70;99.90;;;;;;4132891;28;20411;-73
2023/08/12 04:06:33;;;;;;;12.90;8.75;;;22.70;99.90;;;;;;4127272;28;20034;-74
2023/08/12 04:08:34;;;;;;;11.88;8.15;;;22.70;99.90;;;;;;4128018;28;20061;-72
2023/08/12 04:10:37;;;;;;;10.00;7.13;;;22.70;99.90;;;;;;4140081;28;20061;-74
2023/08/12 04:12:39;;;;;;;11.80;8.02;;;22.70;99.90;;;;;;4123761;28;20042;-73
2023/08/12 04:14:40;;;;;;;13.45;8.60;;;22.70;99.90;;;;;;4126778;28;20038;-75
2023/08/12 04:16:41;;;;;;;10.68;8.00;;;22.80;99.90;;;;;;4122994;28;20045;-74
2023/08/12 04:18:42;;;;;;;10.93;8.38;;;22.70;99.90;;;;;;4126293;28;20038;-75
2023/08/12 04:20:45;;;;;;;11.80;8.75;;;22.70;99.90;;;;;;4121891;28;20064;-74
2023/08/12 04:22:45;;;;;;;13.73;10.00;;;22.80;99.90;;;;;;4126447;28;20061;-75
2023/08/12 04:24:46;;;;;;;16.30;9.43;;;22.80;99.90;;;;;;4126094;28;20027;-75
2023/08/12 04:26:47;;;;;;;15.32;9.68;;;22.80;99.90;;;;;;4129385;28;20034;-75
2023/08/12 04:28:47;;;;;;;15.50;10.15;;;22.80;99.90;;;;;;4110328;28;20057;-73
2023/08/12 04:30:50;;;;;;;11.70;8.25;;;22.80;99.90;;;;;;4104770;28;20417;-74
2023/08/12 04:32:51;;;;;;;12.13;8.75;;;22.80;99.90;;;;;;4139182;28;20038;-75
2023/08/12 04:34:51;;;;;;;12.93;8.80;;;22.80;99.90;;;;;;4128209;28;20042;-75
2023/08/12 04:36:52;;;;;;;12.52;8.80;;;22.90;99.90;;;;;;4125741;28;20031;-75
2023/08/12 04:38:53;;;;;;;10.90;8.73;;;22.90;99.90;;;;;;4125790;28;20034;-74
2023/08/12 04:40:54;;;;;;;18.27;12.55;;;22.90;99.90;;;;;;4134979;28;20034;-75
2023/08/12 04:42:55;;;;;;;13.73;9.30;;;22.80;99.90;;;;;;4126174;28;20077;-75
2023/08/12 04:44:55;;;;;;;15.38;11.15;;;22.80;99.90;;;;;;4127457;28;20415;-74
2023/08/12 04:46:56;;;;;;;15.15;10.85;;;22.80;99.90;;;;;;4125189;28;21432;-75
2023/08/12 04:48:57;;;;;;;15.82;10.70;;;22.70;99.90;;;;;;4146879;28;20045;-75
2023/08/12 04:51:01;;;;;;;16.17;10.77;;;22.80;99.90;;;;;;4126730;28;20045;-72
2023/08/12 04:53:02;;;;;;;16.70;11.15;;;22.80;99.90;;;;;;4127377;28;20058;-72
2023/08/12 04:55:04;;;;;;;17.10;11.38;;;22.80;99.90;;;;;;4109248;28;20408;-71
2023/08/12 04:57:05;;;;;;;15.38;11.23;;;22.70;99.90;;;;;;4140822;28;20033;-75
2023/08/12 04:59:08;;;;;;;15.82;9.90;;;22.70;99.90;;;;;;4126184;28;20042;-74
2023/08/12 05:01:08;;;;;;;;;;;22.70;99.90;;;;;;4122489;28;20034;-71
2023/08/12 05:03:09;;;;;;;16.92;11.40;;;22.70;99.90;;;;;;4130244;28;20997;-73
2023/08/12 05:05:09;;;;;;;18.95;11.95;;;22.60;99.90;;;;;;4119160;28;20049;-73
2023/08/12 05:07:10;;;;;;;15.50;10.63;;;22.70;99.90;;;;;;4118198;28;20030;-75
2023/08/12 05:09:11;;;;;;;15.35;10.15;;;22.70;99.90;;;;;;4120952;28;20042;-74
2023/08/12 05:11:12;;;;;;;13.02;9.60;;;22.70;99.90;;;;;;4119358;28;20062;-75
2023/08/12 05:13:12;;;;;;;16.40;9.85;;;22.70;99.90;;;;;;4100159;28;20041;-74
2023/08/12 05:15:13;;;;;;;14.10;9.75;;;22.60;99.90;;;;;;4139039;28;20041;-68
2023/08/12 05:17:14;;;;;;;13.35;8.65;;;22.70;99.90;;;;;;4117797;28;20427;-69
2023/08/12 05:19:14;;;;;;;14.50;9.60;;;22.70;99.90;;;;;;4140141;28;20044;-71
2023/08/12 05:21:15;;;;;;;15.48;10.30;;;22.60;99.90;;;;;;4117505;28;20065;-68
2023/08/12 05:23:15;;;;;;;12.60;7.68;;;22.60;99.90;;;;;;4119337;28;20030;-71
2023/08/12 05:25:16;;;;;;;10.93;8.32;;;22.60;99.90;;;;;;4122546;28;20041;-70
2023/08/12 05:27:17;;;;;;;13.90;9.98;;;22.60;99.90;;;;;;4121122;28;20042;-68
2023/08/12 05:29:17;;;;;;;12.95;9.23;;;22.60;99.90;;;;;;4119249;28;20382;-68
2023/08/12 05:31:18;;;;;;;12.07;8.45;;;22.60;99.90;;;;;;4115641;28;20124;-70
2023/08/12 05:33:18;;;;;;;15.43;9.82;;;22.60;99.90;;;;;;4116211;28;20041;-67
2023/08/12 05:35:19;;;;;;;13.80;8.40;;;22.50;99.90;;;;;;4116639;28;21759;-68
2023/08/12 05:37:19;;;;;;;13.77;8.80;;;22.50;99.90;;;;;;4138689;28;20141;-67
2023/08/12 05:39:20;;;;;;;15.40;10.05;;;22.50;99.90;;;;;;4120382;28;20061;-71
2023/08/12 05:41:21;;;;;;;11.35;8.40;;;22.40;99.90;;;;;;4126594;28;20026;-68
2023/08/12 05:43:21;;;;;;;14.35;9.88;;;22.40;99.90;;;;;;4118618;28;20038;-67
2023/08/12 05:45:22;;;;;;;13.48;9.70;;;22.40;99.90;;;;;;4119986;28;20045;-67
2023/08/12 05:47:22;;;;;;;14.43;8.65;;;22.30;99.90;;;;;;4120813;28;20030;-67
2023/08/12 05:49:23;;;;;;;13.90;9.55;;;22.40;99.90;;;;;;4116128;28;20342;-66
2023/08/12 05:51:24;;;;;;;14.75;10.10;;;22.40;99.90;;;;;;4117142;28;20112;-67
2023/08/12 05:53:24;;;;;;;12.63;9.50;;;22.40;99.90;;;;;;4117635;28;20450;-66
2023/08/12 05:55:25;;;;;;;11.95;8.60;;;22.30;99.90;;;;;;4115986;28;20034;-66
2023/08/12 05:57:26;;;;;;;15.35;10.82;;;22.40;99.90;;;;;;4131319;28;20393;-66
2023/08/12 05:59:27;;;;;;;16.23;10.45;;;22.30;99.90;;;;;;4130427;28;20088;-66
2023/08/12 06:01:27;;;;;;;16.65;10.70;;;22.40;99.90;;;;;;4118736;28;20121;-71
2023/08/12 06:03:28;;;;;;;14.40;10.15;;;22.40;99.90;;;;;;4114350;28;20046;-66
2023/08/12 06:05:29;;;;;;;13.88;9.05;;;22.40;99.90;;;;;;4134494;28;20438;-67
2023/08/12 06:07:29;;;;;;;12.80;8.32;;;22.30;99.90;;;;;;4121918;28;20102;-67
2023/08/12 06:09:30;;;;;;;15.13;9.77;;;22.40;99.90;;;;;;4117241;28;20495;-67
2023/08/12 06:11:30;;;;;;;15.65;10.75;;;22.30;99.90;;;;;;4118950;28;20066;-68
2023/08/12 06:13:31;;;;;;;13.52;9.45;;;22.30;99.90;;;;;;4124974;28;20057;-66
2023/08/12 06:15:33;;;;;;;13.27;9.32;;;22.30;99.90;;;;;;4119322;28;20035;-66
2023/08/12 06:17:33;;;;;;;14.63;10.70;;;22.20;99.90;;;;;;4128369;28;20524;-67
2023/08/12 06:19:34;;;;;;;13.25;10.15;;;22.20;99.90;;;;;;4119488;28;20118;-66
2023/08/12 06:21:34;;;;;;;14.93;8.50;;;22.20;99.90;;;;;;4135421;28;20110;-67
2023/08/12 06:23:35;;;;;;;11.82;8.77;;;22.20;99.90;;;;;;4127462;28;20059;-67
2023/08/12 06:25:36;;;;;;;12.30;7.93;;;22.20;99.90;;;;;;4118374;28;20035;-71
2023/08/12 06:27:37;;;;;;;14.00;9.43;;;22.20;99.90;;;;;;4122869;28;20045;-71
2023/08/12 06:29:37;;;;;;;13.93;10.05;;;22.10;99.90;;;;;;4115625;28;20053;-71
2023/08/12 06:31:38;;;;;;;13.20;8.85;;;22.10;99.90;;;;;;4115546;28;20061;-71
2023/08/12 06:33:38;;;;;;;12.73;9.70;;;22.10;99.90;;;;;;4122540;28;20058;-70
2023/08/12 06:35:39;;;;;;;17.20;10.82;;;22.00;99.90;;;;;;4117525;28;20043;-71
2023/08/12 06:37:41;;;;;;;12.90;8.43;;;22.00;99.90;;;;;;4118658;28;20035;-72
2023/08/12 06:39:42;;;;;;;10.90;7.97;;;22.00;99.90;;;;;;4117525;28;20062;-71
2023/08/12 06:41:42;;;;;;;12.93;9.60;;;22.00;99.90;;;;;;4122877;28;20391;-71
2023/08/12 06:43:43;;;;;;;14.73;9.40;;;22.00;99.90;;;;;;4124127;28;20045;-70
2023/08/12 06:45:44;;;;;;;10.95;8.07;;;21.90;99.90;;;;;;4124669;28;20077;-67
2023/08/12 06:47:44;;;;;;;15.73;8.90;;;21.90;99.90;;;;;;4124490;28;20085;-68
2023/08/12 06:49:45;;;;;;;15.45;10.52;;;21.90;99.90;;;;;;4098907;28;20031;-66
2023/08/12 06:51:45;;;;;;;12.10;8.50;;;21.90;99.90;;;;;;4129025;28;20057;-66
2023/08/12 06:53:46;;;;;;;11.70;8.18;;;21.90;99.90;;;;;;4123770;28;20116;-66
2023/08/12 06:55:47;;;;;;;10.77;7.72;;;21.90;99.90;;;;;;4121425;28;20125;-69
2023/08/12 06:57:47;;;;;;;11.90;8.20;;;21.90;99.90;;;;;;4131262;28;20042;-67
2023/08/12 06:59:48;;;;;;;13.80;8.60;;;21.90;99.90;;;;;;4123388;28;20093;-66
2023/08/12 07:01:49;;;;;;;10.60;7.82;;;21.90;99.90;;;;;;4125001;28;20081;-68
2023/08/12 07:03:49;;;;;;;9.57;8.13;;;21.90;99.90;;;;;;4128726;28;20124;-67
2023/08/12 07:05:50;;;;;;;10.80;7.70;;;21.90;99.90;;;;;;4113897;28;20109;-66
2023/08/12 07:07:50;;;;;;;14.13;8.90;;;21.90;99.90;;;;;;4117759;28;20494;-68
2023/08/12 07:09:51;;;;;;;11.15;8.35;;;21.90;99.90;;;;;;4118649;28;20109;-67
2023/08/12 07:11:52;;;;;;;9.52;7.43;;;21.80;99.90;;;;;;4115591;28;20042;-70
2023/08/12 07:13:52;;;;;;;13.85;8.63;;;21.90;99.90;;;;;;4119107;28;20038;-66
2023/08/12 07:15:53;;;;;;;10.73;8.18;;;21.90;99.90;;;;;;4114733;28;20117;-67
2023/08/12 07:17:53;;;;;;;17.80;8.55;;;21.90;99.90;;;;;;4125028;28;20106;-66
2023/08/12 07:19:56;;;;;;;11.63;8.23;;;21.80;99.90;;;;;;4122784;28;20030;-67
2023/08/12 07:21:57;;;;;;;8.48;6.30;;;21.80;99.90;;;;;;4137359;28;20108;-66
2023/08/12 07:23:58;;;;;;;7.93;5.68;;;21.90;99.90;;;;;;4122801;28;20044;-67
2023/08/12 07:25:58;;;;;;;8.05;6.13;;;21.90;99.90;;;;;;4112293;28;20133;-66
2023/08/12 07:28:00;;;;;;;8.35;5.72;;;21.90;99.90;;;;;;4124691;28;20483;-66
2023/08/12 07:30:00;;;;;;;7.90;6.05;;;21.90;99.90;;;;;;4127405;28;20034;-66
2023/08/12 07:32:01;;;;;;;7.07;5.05;;;21.90;99.90;;;;;;4125071;28;20545;-66
2023/08/12 07:34:01;;;;;;;8.50;5.70;;;21.90;99.90;;;;;;4129274;28;20045;-66
2023/08/12 07:36:02;;;;;;;6.78;4.90;;;21.90;99.90;;;;;;4132839;28;20042;-66
2023/08/12 07:38:03;;;;;;;7.55;4.95;;;21.90;99.90;;;;;;4140782;28;20077;-66
2023/08/12 07:40:04;;;;;;;5.10;4.60;;;21.90;99.90;;;;;;4126047;28;20434;-67
2023/08/12 07:42:05;;;;;;;5.43;4.05;;;21.90;99.90;;;;;;4122580;28;20030;-66
2023/08/12 07:44:05;;;;;;;6.03;4.35;;;21.90;99.90;;;;;;4120251;28;20443;-66
2023/08/12 07:46:06;;;;;;;6.30;4.22;;;21.90;99.90;;;;;;4117993;28;20022;-66
2023/08/12 07:48:07;;;;;;;5.45;4.32;;;21.90;99.90;;;;;;4123303;28;20398;-68
2023/08/12 07:50:08;;;;;;;6.95;4.53;;;22.00;99.90;;;;;;4122090;28;20498;-68
2023/08/12 07:52:08;;;;;;;5.80;4.47;;;22.00;99.90;;;;;;4119907;28;20037;-67
2023/08/12 07:54:09;;;;;;;4.45;3.42;;;22.00;99.90;;;;;;4124362;28;20065;-67
2023/08/12 07:56:10;;;;;;;5.93;4.20;;;22.00;99.90;;;;;;4120564;28;20040;-68
2023/08/12 07:58:10;;;;;;;6.97;4.35;;;22.00;99.90;;;;;;4123543;28;20044;-69
2023/08/12 08:00:12;;;;;;;7.00;4.60;;;22.10;99.90;;;;;;4122651;28;20130;-68
2023/08/12 08:02:12;;;;;;;6.90;4.57;;;22.00;99.90;;;;;;4123709;28;20061;-67
2023/08/12 08:04:13;;;;;;;6.47;4.47;;;22.00;99.90;;;;;;4119237;28;20023;-69
2023/08/12 08:06:13;;;;;;;4.80;3.35;;;22.00;99.90;;;;;;4116293;28;20036;-66
2023/08/12 08:08:14;;;;;;;7.43;4.30;;;22.00;99.90;;;;;;4126778;28;20065;-70
2023/08/12 08:10:15;;;;;;;5.30;2.92;;;21.90;99.90;;;;;;4122256;28;20034;-66
2023/08/12 08:12:15;;;;;;;5.13;2.88;;;21.90;99.90;;;;;;4123762;28;20479;-69
2023/08/12 08:14:16;;;;;;;2.80;2.40;;;22.00;99.90;;;;;;4121379;28;20078;-71
2023/08/12 08:16:17;;;;;;;3.40;2.38;;;22.00;99.90;;;;;;4121260;28;20446;-68
2023/08/12 08:18:17;;;;;;;3.50;1.77;;;21.90;99.90;;;;;;4125209;28;20026;-68
2023/08/12 08:20:18;;;;;;;2.90;1.85;;;21.90;99.90;;;;;;4135550;28;20034;-66
2023/08/12 08:22:19;;;;;;;2.38;1.70;;;21.90;99.90;;;;;;4120147;28;20106;-68
2023/08/12 08:24:19;;;;;;;2.78;1.80;;;21.90;99.90;;;;;;4124684;28;20089;-68
2023/08/12 08:26:20;;;;;;;2.30;1.67;;;21.80;99.90;;;;;;4108560;28;20031;-68
2023/08/12 08:28:20;;;;;;;2.60;1.55;;;21.90;99.90;;;;;;4124976;28;20133;-67
2023/08/12 08:30:22;;;;;;;2.40;1.55;;;21.90;99.90;;;;;;4127365;28;20687;-70
2023/08/12 08:32:23;;;;;;;2.50;1.63;;;21.90;99.90;;;;;;4131221;28;20032;-67
2023/08/12 08:34:23;;;;;;;1.75;1.35;;;21.90;99.90;;;;;;4140658;28;20762;-67
2023/08/12 08:36:24;;;;;;;1.77;1.30;;;21.90;99.90;;;;;;4143362;28;20048;-68
2023/08/12 08:38:25;;;;;;;2.45;1.42;;;21.90;99.90;;;;;;4126051;28;20085;-68
2023/08/12 08:40:26;;;;;;;2.00;1.30;;;21.90;99.90;;;;;;4120353;28;20045;-67
2023/08/12 08:42:28;;;;;;;1.42;1.33;;;21.90;99.90;;;;;;4139567;28;20537;-67
2023/08/12 08:44:32;;;;;;;1.90;1.38;;;21.90;99.90;;;;;;4130868;28;20030;-68
2023/08/12 08:46:33;;;;;;;1.75;1.13;;;22.00;99.90;;;;;;4142860;28;20531;-68
2023/08/12 08:48:35;;;;;;;2.50;1.67;;;21.90;99.90;;;;;;4119542;28;20034;-67
2023/08/12 08:50:36;;;;;;;1.75;1.33;;;22.00;99.90;;;;;;4124742;28;20097;-67
2023/08/12 08:52:38;;;;;;;1.33;1.10;;;22.00;99.90;;;;;;4124296;28;20038;-67
2023/08/12 08:54:39;;;;;;;1.40;1.20;;;22.10;99.90;;;;;;4124220;28;20735;-68
2023/08/12 08:56:40;;;;;;;1.67;1.20;;;22.00;99.90;;;;;;4125609;28;20581;-67
2023/08/12 08:58:40;;;;;;;3.97;1.40;;;22.00;99.90;;;;;;4120933;28;20046;-68
2023/08/12 09:00:42;;;;;;;1.60;1.33;;;22.00;99.90;;;;;;4121932;28;20040;-68
2023/08/12 09:02:50;;;;;;;2.28;1.20;;;22.00;99.90;;;;;;4117988;28;20034;-68
2023/08/12 09:04:52;;;;;;;1.65;1.20;;;22.00;99.90;;;;;;4124105;28;20042;-68
2023/08/12 09:06:53;;;;;;;2.05;1.15;;;22.00;99.90;;;;;;4122521;28;20034;-67
2023/08/12 09:08:54;;;;;;;1.90;1.20;;;22.00;99.90;;;;;;4126561;28;20345;-67
2023/08/12 09:10:56;;;;;;;1.27;1.13;;;22.00;99.90;;;;;;4127109;28;20451;-68
2023/08/12 09:12:57;;;;;;;2.30;1.02;;;22.00;99.90;;;;;;4127389;28;20511;-68
2023/08/12 09:14:57;;;;;;;2.42;1.05;;;21.90;99.90;;;;;;4110040;28;20039;-68
2023/08/12 09:16:58;;;;;;;1.50;1.10;;;21.90;99.90;;;;;;4125368;28;20041;-67
2023/08/12 09:18:59;;;;;;;1.55;0.98;;;22.00;99.90;;;;;;4125816;28;20040;-68
2023/08/12 09:21:00;;;;;;;1.20;1.08;;;22.00;99.90;;;;;;4135414;28;20084;-67
2023/08/12 09:23:02;;;;;;;1.42;1.02;;;21.90;99.90;;;;;;4116137;28;20494;-67
2023/08/12 09:25:04;;;;;;;1.65;0.98;;;22.00;99.90;;;;;;4121129;28;20034;-70
2023/08/12 09:27:05;;;;;;;1.73;1.00;;;22.00;99.90;;;;;;4118294;28;20030;-68
2023/08/12 09:29:05;;;;;;;1.98;1.00;;;22.00;99.90;;;;;;4112330;28;20039;-68
2023/08/12 09:31:21;;;;;;;2.25;1.25;;;22.00;99.90;;;;;;4122638;28;20037;-68
2023/08/12 09:33:28;;;;;;;1.63;1.00;;;22.00;99.90;;;;;;4133520;28;20117;-69
2023/08/12 09:35:39;;;;;;;1.70;1.10;;;22.00;99.90;;;;;;4134863;28;20038;-69
2023/08/12 09:37:41;;;;;;;1.25;1.05;;;22.00;99.90;;;;;;4125172;28;20034;-68
2023/08/12 09:39:42;;;;;;;2.08;1.20;;;22.00;99.90;;;;;;4117809;28;20034;-70
2023/08/12 09:41:43;;;;;;;1.27;0.95;;;22.00;99.90;;;;;;4122382;28;20035;-68
2023/08/12 09:43:44;;;;;;;3.15;1.08;;;22.00;99.90;;;;;;4126514;28;20053;-67
2023/08/12 09:45:45;;;;;;;1.05;0.90;;;22.00;99.90;;;;;;4105694;28;20126;-68
2023/08/12 09:47:46;;;;;;;1.77;1.05;;;22.00;99.90;;;;;;4124540;28;20038;-67
2023/08/12 09:49:47;;;;;;;2.78;1.25;;;22.00;99.90;;;;;;4131475;28;20038;-68
2023/08/12 09:51:48;;;;;;;0.95;0.90;;;22.00;99.90;;;;;;4126980;28;20034;-68
2023/08/12 09:53:49;;;;;;;0.90;0.75;;;22.00;99.90;;;;;;4117171;28;20038;-68
2023/08/12 09:55:52;;;;;;;1.00;0.90;;;22.00;99.90;;;;;;4125117;28;20031;-71
2023/08/12 09:57:55;;;;;;;1.63;1.08;;;22.10;99.90;;;;;;4126934;28;20029;-71
2023/08/12 09:59:57;;;;;;;1.38;0.90;;;22.10;99.90;;;;;;4139622;28;20112;-71
2023/08/12 10:01:58;;;;;;;;;;;22.10;99.90;;;;;;4126968;28;20042;-71
2023/08/12 10:03:59;;;;;;;1.98;0.95;;;22.10;99.90;;;;;;4111035;28;20363;-71
2023/08/12 10:06:01;;;;;;;2.03;0.80;;;22.10;99.90;;;;;;4135410;28;20526;-71
2023/08/12 10:08:05;;;;;;;3.28;1.00;;;22.10;99.90;;;;;;4132269;28;20572;-71
2023/08/12 10:10:07;;;;;;;1.05;0.70;;;22.10;99.90;;;;;;4124539;28;20042;-71
2023/08/12 10:12:10;;;;;;;1.70;0.98;;;22.20;99.90;;;;;;4124939;28;20061;-71
2023/08/12 10:14:10;;;;;;;;;;;22.20;99.90;;;;;;4125085;28;20027;-71
2023/08/12 10:16:12;;;;;;;3.88;1.20;;;22.30;99.90;;;;;;4132659;28;19951;-71
2023/08/12 10:18:14;;;;;;;1.98;1.23;;;22.20;99.90;;;;;;4119354;28;20031;-71
2023/08/12 10:20:21;;;;;;;1.40;0.90;;;22.20;99.90;;;;;;4120720;28;20104;-71
2023/08/12 10:22:23;;;;;;;1.08;0.93;;;22.30;99.90;;;;;;4119662;28;20408;-71
2023/08/12 10:24:25;;;;;;;0.80;0.80;;;22.30;99.90;;;;;;4120632;28;20522;-71
2023/08/12 10:26:26;;;;;;;1.02;0.95;;;22.30;99.90;;;;;;4106229;28;20317;-70
2023/08/12 10:28:29;;;;;;;3.03;0.70;;;22.40;99.90;;;;;;4117690;28;20125;-71